sensor_id;sensor_type;location;lat;lon;timestamp;temperature;humidity
23147;DHT22;11742;53.532;-1.478;2023-03-02T00:04:34;10.70;85.80
23147;DHT22;11742;53.532;-1.478;2023-03-02T00:07:27;10.70;85.80
23147;DHT22;11742;53.532;-1.478;2023-03-02T00:10:14;10.70;85.90
23147;DHT22;11742;53.532;-1.478;2023-03-02T00:12:58;10.70;85.90
23147;DHT22;11742;53.532;-1.478;2023-03-02T00:15:43;10.70;85.90
23147;DHT22;11742;53.532;-1.478;2023-03-02T00:18:27;10.60;85.80
23147;DHT22;11742;53.532;-1.478;2023-03-02T00:21:11;10.60;85.90
23147;DHT22;11742;53.532;-1.478;2023-03-02T00:23:55;10.60;85.80
23147;DHT22;11742;53.532;-1.478;2023-03-02T00:26:40;10.60;86.00
23147;DHT22;11742;53.532;-1.478;2023-03-02T00:29:24;10.60;86.00
23147;DHT22;11742;53.532;-1.478;2023-03-02T00:32:09;10.60;86.00
23147;DHT22;11742;53.532;-1.478;2023-03-02T00:34:57;10.60;86.00
23147;DHT22;11742;53.532;-1.478;2023-03-02T00:37:42;10.60;86.00
23147;DHT22;11742;53.532;-1.478;2023-03-02T00:40:26;10.60;86.10
23147;DHT22;11742;53.532;-1.478;2023-03-02T00:43:11;10.60;86.10
23147;DHT22;11742;53.532;-1.478;2023-03-02T00:45:56;10.50;86.00
23147;DHT22;11742;53.532;-1.478;2023-03-02T00:48:42;10.50;86.10
23147;DHT22;11742;53.532;-1.478;2023-03-02T00:51:26;10.50;86.10
23147;DHT22;11742;53.532;-1.478;2023-03-02T00:54:10;10.50;86.20
23147;DHT22;11742;53.532;-1.478;2023-03-02T00:56:54;10.50;86.20
23147;DHT22;11742;53.532;-1.478;2023-03-02T00:59:39;10.50;86.20
23147;DHT22;11742;53.532;-1.478;2023-03-02T01:02:23;10.50;86.20
23147;DHT22;11742;53.532;-1.478;2023-03-02T01:05:07;10.50;86.20
23147;DHT22;11742;53.532;-1.478;2023-03-02T01:07:52;10.50;86.30
23147;DHT22;11742;53.532;-1.478;2023-03-02T01:10:36;10.50;86.30
23147;DHT22;11742;53.532;-1.478;2023-03-02T01:13:21;10.50;86.30
23147;DHT22;11742;53.532;-1.478;2023-03-02T01:16:05;10.50;86.30
23147;DHT22;11742;53.532;-1.478;2023-03-02T01:18:50;10.50;86.30
23147;DHT22;11742;53.532;-1.478;2023-03-02T01:21:34;10.40;86.30
23147;DHT22;11742;53.532;-1.478;2023-03-02T01:24:18;10.40;86.30
23147;DHT22;11742;53.532;-1.478;2023-03-02T01:27:02;10.40;86.40
23147;DHT22;11742;53.532;-1.478;2023-03-02T01:29:47;10.40;86.40
23147;DHT22;11742;53.532;-1.478;2023-03-02T01:32:34;10.40;86.40
23147;DHT22;11742;53.532;-1.478;2023-03-02T01:35:18;10.40;86.40
23147;DHT22;11742;53.532;-1.478;2023-03-02T01:38:02;10.40;86.50
23147;DHT22;11742;53.532;-1.478;2023-03-02T01:40:46;10.40;86.50
23147;DHT22;11742;53.532;-1.478;2023-03-02T01:43:31;10.40;86.50
23147;DHT22;11742;53.532;-1.478;2023-03-02T01:46:17;10.30;86.40
23147;DHT22;11742;53.532;-1.478;2023-03-02T01:49:03;10.30;86.50
23147;DHT22;11742;53.532;-1.478;2023-03-02T01:51:48;10.30;86.60
23147;DHT22;11742;53.532;-1.478;2023-03-02T01:54:32;10.30;86.60
23147;DHT22;11742;53.532;-1.478;2023-03-02T01:57:19;10.30;86.70
23147;DHT22;11742;53.532;-1.478;2023-03-02T02:00:05;10.30;86.70
23147;DHT22;11742;53.532;-1.478;2023-03-02T02:02:53;10.30;86.80
23147;DHT22;11742;53.532;-1.478;2023-03-02T02:05:57;10.30;86.80
23147;DHT22;11742;53.532;-1.478;2023-03-02T02:08:44;10.30;86.90
23147;DHT22;11742;53.532;-1.478;2023-03-02T02:11:29;10.30;86.90
23147;DHT22;11742;53.532;-1.478;2023-03-02T02:14:13;10.30;86.90
23147;DHT22;11742;53.532;-1.478;2023-03-02T02:16:57;10.30;86.90
23147;DHT22;11742;53.532;-1.478;2023-03-02T02:25:39;10.30;87.00
23147;DHT22;11742;53.532;-1.478;2023-03-02T02:28:29;10.20;87.00
23147;DHT22;11742;53.532;-1.478;2023-03-02T02:31:22;10.20;86.90
23147;DHT22;11742;53.532;-1.478;2023-03-02T02:34:20;10.20;87.00
23147;DHT22;11742;53.532;-1.478;2023-03-02T02:37:13;10.20;87.00
23147;DHT22;11742;53.532;-1.478;2023-03-02T02:39:58;10.20;87.10
23147;DHT22;11742;53.532;-1.478;2023-03-02T02:42:44;10.20;87.10
23147;DHT22;11742;53.532;-1.478;2023-03-02T02:45:30;10.20;87.20
23147;DHT22;11742;53.532;-1.478;2023-03-02T02:48:15;10.20;87.20
23147;DHT22;11742;53.532;-1.478;2023-03-02T02:50:59;10.20;87.20
23147;DHT22;11742;53.532;-1.478;2023-03-02T02:56:33;10.20;87.20
23147;DHT22;11742;53.532;-1.478;2023-03-02T02:59:23;10.20;87.20
23147;DHT22;11742;53.532;-1.478;2023-03-02T03:02:12;10.20;87.20
23147;DHT22;11742;53.532;-1.478;2023-03-02T03:04:58;10.10;87.10
23147;DHT22;11742;53.532;-1.478;2023-03-02T03:07:48;10.10;87.10
23147;DHT22;11742;53.532;-1.478;2023-03-02T03:10:33;10.10;87.10
23147;DHT22;11742;53.532;-1.478;2023-03-02T03:13:19;10.10;87.10
23147;DHT22;11742;53.532;-1.478;2023-03-02T03:16:03;10.10;87.10
23147;DHT22;11742;53.532;-1.478;2023-03-02T03:18:49;10.10;87.10
23147;DHT22;11742;53.532;-1.478;2023-03-02T03:21:34;10.10;87.20
23147;DHT22;11742;53.532;-1.478;2023-03-02T03:24:19;10.10;87.20
23147;DHT22;11742;53.532;-1.478;2023-03-02T03:27:04;10.10;87.10
23147;DHT22;11742;53.532;-1.478;2023-03-02T03:29:48;10.10;87.30
23147;DHT22;11742;53.532;-1.478;2023-03-02T03:32:33;10.10;87.20
23147;DHT22;11742;53.532;-1.478;2023-03-02T03:35:18;10.10;87.30
23147;DHT22;11742;53.532;-1.478;2023-03-02T03:38:04;10.10;87.30
23147;DHT22;11742;53.532;-1.478;2023-03-02T03:40:48;10.10;87.20
23147;DHT22;11742;53.532;-1.478;2023-03-02T03:43:32;10.10;87.20
23147;DHT22;11742;53.532;-1.478;2023-03-02T03:46:16;10.00;87.20
23147;DHT22;11742;53.532;-1.478;2023-03-02T03:49:00;10.00;87.30
23147;DHT22;11742;53.532;-1.478;2023-03-02T03:51:44;10.00;87.30
23147;DHT22;11742;53.532;-1.478;2023-03-02T03:54:29;10.00;87.40
23147;DHT22;11742;53.532;-1.478;2023-03-02T03:57:14;10.00;87.40
23147;DHT22;11742;53.532;-1.478;2023-03-02T03:59:58;10.00;87.40
23147;DHT22;11742;53.532;-1.478;2023-03-02T04:02:42;10.00;87.40
23147;DHT22;11742;53.532;-1.478;2023-03-02T04:05:26;10.00;87.40
23147;DHT22;11742;53.532;-1.478;2023-03-02T04:08:11;10.00;87.50
23147;DHT22;11742;53.532;-1.478;2023-03-02T04:10:55;10.00;87.40
23147;DHT22;11742;53.532;-1.478;2023-03-02T04:13:39;10.00;87.50
23147;DHT22;11742;53.532;-1.478;2023-03-02T04:16:24;10.00;87.50
23147;DHT22;11742;53.532;-1.478;2023-03-02T04:19:08;10.00;87.50
23147;DHT22;11742;53.532;-1.478;2023-03-02T04:21:53;9.90;87.40
23147;DHT22;11742;53.532;-1.478;2023-03-02T04:24:37;9.90;87.40
23147;DHT22;11742;53.532;-1.478;2023-03-02T04:27:22;10.00;87.50
23147;DHT22;11742;53.532;-1.478;2023-03-02T04:30:06;9.90;87.40
23147;DHT22;11742;53.532;-1.478;2023-03-02T04:32:51;9.90;87.40
23147;DHT22;11742;53.532;-1.478;2023-03-02T04:35:35;9.90;87.50
23147;DHT22;11742;53.532;-1.478;2023-03-02T04:38:19;9.90;87.50
23147;DHT22;11742;53.532;-1.478;2023-03-02T04:41:03;9.90;87.50
23147;DHT22;11742;53.532;-1.478;2023-03-02T04:43:48;9.90;87.50
23147;DHT22;11742;53.532;-1.478;2023-03-02T04:46:32;9.90;87.50
23147;DHT22;11742;53.532;-1.478;2023-03-02T04:49:17;9.90;87.50
23147;DHT22;11742;53.532;-1.478;2023-03-02T04:52:02;9.90;87.50
23147;DHT22;11742;53.532;-1.478;2023-03-02T04:54:46;9.90;87.50
23147;DHT22;11742;53.532;-1.478;2023-03-02T04:57:31;9.90;87.50
23147;DHT22;11742;53.532;-1.478;2023-03-02T05:00:15;9.80;87.50
23147;DHT22;11742;53.532;-1.478;2023-03-02T05:03:01;9.90;87.60
23147;DHT22;11742;53.532;-1.478;2023-03-02T05:05:45;9.80;87.60
23147;DHT22;11742;53.532;-1.478;2023-03-02T05:08:29;9.80;87.60
23147;DHT22;11742;53.532;-1.478;2023-03-02T05:11:14;9.80;87.60
23147;DHT22;11742;53.532;-1.478;2023-03-02T05:14:05;9.80;87.60
23147;DHT22;11742;53.532;-1.478;2023-03-02T05:16:50;9.90;87.60
23147;DHT22;11742;53.532;-1.478;2023-03-02T05:19:34;9.80;87.50
23147;DHT22;11742;53.532;-1.478;2023-03-02T05:22:18;9.80;87.60
23147;DHT22;11742;53.532;-1.478;2023-03-02T05:25:02;9.80;87.60
23147;DHT22;11742;53.532;-1.478;2023-03-02T05:27:47;9.80;87.60
23147;DHT22;11742;53.532;-1.478;2023-03-02T05:30:31;9.80;87.60
23147;DHT22;11742;53.532;-1.478;2023-03-02T05:33:20;9.80;87.60
23147;DHT22;11742;53.532;-1.478;2023-03-02T05:36:04;9.80;87.60
23147;DHT22;11742;53.532;-1.478;2023-03-02T05:38:48;9.80;87.60
23147;DHT22;11742;53.532;-1.478;2023-03-02T05:41:33;9.80;87.70
23147;DHT22;11742;53.532;-1.478;2023-03-02T05:44:17;9.80;87.60
23147;DHT22;11742;53.532;-1.478;2023-03-02T05:47:02;9.80;87.50
23147;DHT22;11742;53.532;-1.478;2023-03-02T05:49:46;9.80;87.60
23147;DHT22;11742;53.532;-1.478;2023-03-02T05:52:30;9.80;87.50
23147;DHT22;11742;53.532;-1.478;2023-03-02T05:55:16;9.80;87.60
23147;DHT22;11742;53.532;-1.478;2023-03-02T05:58:00;9.80;87.60
23147;DHT22;11742;53.532;-1.478;2023-03-02T06:00:45;9.70;87.50
23147;DHT22;11742;53.532;-1.478;2023-03-02T06:03:29;9.70;87.50
23147;DHT22;11742;53.532;-1.478;2023-03-02T06:06:13;9.70;87.50
23147;DHT22;11742;53.532;-1.478;2023-03-02T06:08:57;9.70;87.50
23147;DHT22;11742;53.532;-1.478;2023-03-02T06:11:41;9.70;87.50
23147;DHT22;11742;53.532;-1.478;2023-03-02T06:14:26;9.70;87.40
23147;DHT22;11742;53.532;-1.478;2023-03-02T06:17:10;9.70;87.40
23147;DHT22;11742;53.532;-1.478;2023-03-02T06:19:54;9.70;87.40
23147;DHT22;11742;53.532;-1.478;2023-03-02T06:22:42;9.70;87.50
23147;DHT22;11742;53.532;-1.478;2023-03-02T06:25:27;9.70;87.40
23147;DHT22;11742;53.532;-1.478;2023-03-02T06:28:12;9.70;87.50
23147;DHT22;11742;53.532;-1.478;2023-03-02T06:30:56;9.70;87.40
23147;DHT22;11742;53.532;-1.478;2023-03-02T06:33:42;9.70;87.30
23147;DHT22;11742;53.532;-1.478;2023-03-02T06:36:26;9.70;87.40
23147;DHT22;11742;53.532;-1.478;2023-03-02T06:39:11;9.70;87.50
23147;DHT22;11742;53.532;-1.478;2023-03-02T06:41:58;9.70;87.50
23147;DHT22;11742;53.532;-1.478;2023-03-02T06:44:43;9.70;87.50
23147;DHT22;11742;53.532;-1.478;2023-03-02T06:47:27;9.70;87.50
23147;DHT22;11742;53.532;-1.478;2023-03-02T06:50:11;9.70;87.60
23147;DHT22;11742;53.532;-1.478;2023-03-02T06:52:55;9.70;87.50
23147;DHT22;11742;53.532;-1.478;2023-03-02T06:55:39;9.60;87.40
23147;DHT22;11742;53.532;-1.478;2023-03-02T06:58:24;9.60;87.50
23147;DHT22;11742;53.532;-1.478;2023-03-02T07:01:08;9.60;87.30
23147;DHT22;11742;53.532;-1.478;2023-03-02T07:03:52;9.60;87.30
23147;DHT22;11742;53.532;-1.478;2023-03-02T07:06:36;9.60;87.30
23147;DHT22;11742;53.532;-1.478;2023-03-02T07:09:21;9.60;87.30
23147;DHT22;11742;53.532;-1.478;2023-03-02T07:12:05;9.60;87.40
23147;DHT22;11742;53.532;-1.478;2023-03-02T07:14:49;9.60;87.30
23147;DHT22;11742;53.532;-1.478;2023-03-02T07:17:33;9.60;87.30
23147;DHT22;11742;53.532;-1.478;2023-03-02T07:20:18;9.60;87.30
23147;DHT22;11742;53.532;-1.478;2023-03-02T07:23:02;9.60;87.30
23147;DHT22;11742;53.532;-1.478;2023-03-02T07:25:46;9.60;87.30
23147;DHT22;11742;53.532;-1.478;2023-03-02T07:28:30;9.60;87.30
23147;DHT22;11742;53.532;-1.478;2023-03-02T07:31:14;9.60;87.30
23147;DHT22;11742;53.532;-1.478;2023-03-02T07:33:59;9.60;87.30
23147;DHT22;11742;53.532;-1.478;2023-03-02T07:36:43;9.60;87.30
23147;DHT22;11742;53.532;-1.478;2023-03-02T07:39:27;9.60;87.30
23147;DHT22;11742;53.532;-1.478;2023-03-02T07:42:11;9.60;87.30
23147;DHT22;11742;53.532;-1.478;2023-03-02T07:44:56;9.60;87.20
23147;DHT22;11742;53.532;-1.478;2023-03-02T07:47:40;9.60;87.30
23147;DHT22;11742;53.532;-1.478;2023-03-02T07:50:24;9.60;87.20
23147;DHT22;11742;53.532;-1.478;2023-03-02T07:53:08;9.60;87.30
23147;DHT22;11742;53.532;-1.478;2023-03-02T07:55:52;9.60;87.20
23147;DHT22;11742;53.532;-1.478;2023-03-02T07:58:37;9.60;87.20
23147;DHT22;11742;53.532;-1.478;2023-03-02T08:01:21;9.60;87.30
23147;DHT22;11742;53.532;-1.478;2023-03-02T08:04:05;9.60;87.20
23147;DHT22;11742;53.532;-1.478;2023-03-02T08:06:49;9.60;87.20
23147;DHT22;11742;53.532;-1.478;2023-03-02T08:09:33;9.60;87.30
23147;DHT22;11742;53.532;-1.478;2023-03-02T08:12:18;9.60;87.20
23147;DHT22;11742;53.532;-1.478;2023-03-02T08:15:02;9.60;87.30
23147;DHT22;11742;53.532;-1.478;2023-03-02T08:17:46;9.60;87.30
23147;DHT22;11742;53.532;-1.478;2023-03-02T08:20:30;9.50;87.20
23147;DHT22;11742;53.532;-1.478;2023-03-02T08:23:15;9.60;87.30
23147;DHT22;11742;53.532;-1.478;2023-03-02T08:25:59;9.60;87.30
23147;DHT22;11742;53.532;-1.478;2023-03-02T08:28:43;9.60;87.30
23147;DHT22;11742;53.532;-1.478;2023-03-02T08:31:27;9.60;87.30
23147;DHT22;11742;53.532;-1.478;2023-03-02T08:34:12;9.60;87.30
23147;DHT22;11742;53.532;-1.478;2023-03-02T08:36:56;9.60;87.40
23147;DHT22;11742;53.532;-1.478;2023-03-02T08:39:40;9.60;87.60
23147;DHT22;11742;53.532;-1.478;2023-03-02T08:42:24;9.60;87.60
23147;DHT22;11742;53.532;-1.478;2023-03-02T08:45:09;9.60;87.40
23147;DHT22;11742;53.532;-1.478;2023-03-02T08:47:53;9.60;87.40
23147;DHT22;11742;53.532;-1.478;2023-03-02T08:50:37;9.60;87.30
23147;DHT22;11742;53.532;-1.478;2023-03-02T08:53:22;9.60;87.30
23147;DHT22;11742;53.532;-1.478;2023-03-02T08:56:23;9.60;87.30
23147;DHT22;11742;53.532;-1.478;2023-03-02T08:59:09;9.60;87.40
23147;DHT22;11742;53.532;-1.478;2023-03-02T09:01:54;9.60;87.30
23147;DHT22;11742;53.532;-1.478;2023-03-02T09:04:38;9.60;87.30
23147;DHT22;11742;53.532;-1.478;2023-03-02T09:07:22;9.60;87.40
23147;DHT22;11742;53.532;-1.478;2023-03-02T09:10:07;9.60;87.30
23147;DHT22;11742;53.532;-1.478;2023-03-02T09:12:51;9.60;87.30
23147;DHT22;11742;53.532;-1.478;2023-03-02T09:15:36;9.60;87.30
23147;DHT22;11742;53.532;-1.478;2023-03-02T09:18:20;9.70;87.40
23147;DHT22;11742;53.532;-1.478;2023-03-02T09:21:05;9.70;87.40
23147;DHT22;11742;53.532;-1.478;2023-03-02T09:23:49;9.70;87.40
23147;DHT22;11742;53.532;-1.478;2023-03-02T09:26:38;9.70;87.40
23147;DHT22;11742;53.532;-1.478;2023-03-02T09:29:23;9.70;87.40
23147;DHT22;11742;53.532;-1.478;2023-03-02T09:32:07;9.70;87.20
23147;DHT22;11742;53.532;-1.478;2023-03-02T09:34:51;9.70;87.10
23147;DHT22;11742;53.532;-1.478;2023-03-02T09:37:35;9.70;87.00
23147;DHT22;11742;53.532;-1.478;2023-03-02T09:40:22;9.80;87.00
23147;DHT22;11742;53.532;-1.478;2023-03-02T09:46:31;9.80;86.80
23147;DHT22;11742;53.532;-1.478;2023-03-02T09:49:26;9.80;86.80
23147;DHT22;11742;53.532;-1.478;2023-03-02T09:55:11;9.80;86.60
23147;DHT22;11742;53.532;-1.478;2023-03-02T09:57:56;9.80;86.50
23147;DHT22;11742;53.532;-1.478;2023-03-02T10:00:42;9.80;86.40
23147;DHT22;11742;53.532;-1.478;2023-03-02T10:03:32;9.80;86.30
23147;DHT22;11742;53.532;-1.478;2023-03-02T10:06:17;9.80;86.30
23147;DHT22;11742;53.532;-1.478;2023-03-02T10:09:02;9.80;86.20
23147;DHT22;11742;53.532;-1.478;2023-03-02T10:14:55;9.90;86.10
23147;DHT22;11742;53.532;-1.478;2023-03-02T10:20:55;9.90;86.00
23147;DHT22;11742;53.532;-1.478;2023-03-02T10:24:00;9.90;86.00
23147;DHT22;11742;53.532;-1.478;2023-03-02T10:26:47;9.90;85.90
23147;DHT22;11742;53.532;-1.478;2023-03-02T10:32:30;9.90;85.80
23147;DHT22;11742;53.532;-1.478;2023-03-02T10:35:16;9.90;85.80
23147;DHT22;11742;53.532;-1.478;2023-03-02T10:38:35;9.90;85.70
23147;DHT22;11742;53.532;-1.478;2023-03-02T10:41:14;9.90;85.80
23147;DHT22;11742;53.532;-1.478;2023-03-02T10:44:22;9.90;85.80
23147;DHT22;11742;53.532;-1.478;2023-03-02T10:47:05;9.90;85.70
23147;DHT22;11742;53.532;-1.478;2023-03-02T10:49:51;9.90;85.70
23147;DHT22;11742;53.532;-1.478;2023-03-02T10:52:35;10.00;85.70
23147;DHT22;11742;53.532;-1.478;2023-03-02T10:55:19;10.00;85.70
23147;DHT22;11742;53.532;-1.478;2023-03-02T10:58:04;10.00;85.70
23147;DHT22;11742;53.532;-1.478;2023-03-02T11:03:39;10.00;85.60
23147;DHT22;11742;53.532;-1.478;2023-03-02T11:06:24;10.00;85.60
23147;DHT22;11742;53.532;-1.478;2023-03-02T11:09:11;10.00;85.60
23147;DHT22;11742;53.532;-1.478;2023-03-02T11:11:56;10.00;85.60
23147;DHT22;11742;53.532;-1.478;2023-03-02T11:14:44;10.00;85.50
23147;DHT22;11742;53.532;-1.478;2023-03-02T11:17:29;10.00;85.60
23147;DHT22;11742;53.532;-1.478;2023-03-02T11:20:16;10.00;85.50
23147;DHT22;11742;53.532;-1.478;2023-03-02T11:25:51;10.10;85.50
23147;DHT22;11742;53.532;-1.478;2023-03-02T11:28:39;10.10;85.50
23147;DHT22;11742;53.532;-1.478;2023-03-02T11:31:36;10.00;85.50
23147;DHT22;11742;53.532;-1.478;2023-03-02T11:34:33;10.10;85.60
23147;DHT22;11742;53.532;-1.478;2023-03-02T11:37:23;10.10;85.50
23147;DHT22;11742;53.532;-1.478;2023-03-02T11:42:53;10.10;85.50
23147;DHT22;11742;53.532;-1.478;2023-03-02T11:45:43;10.10;85.50
23147;DHT22;11742;53.532;-1.478;2023-03-02T11:48:29;10.10;85.50
23147;DHT22;11742;53.532;-1.478;2023-03-02T11:51:23;10.20;85.50
23147;DHT22;11742;53.532;-1.478;2023-03-02T11:54:18;10.10;85.30
23147;DHT22;11742;53.532;-1.478;2023-03-02T11:57:04;10.20;85.40
23147;DHT22;11742;53.532;-1.478;2023-03-02T11:59:49;10.20;85.50
23147;DHT22;11742;53.532;-1.478;2023-03-02T12:02:34;10.20;85.40
23147;DHT22;11742;53.532;-1.478;2023-03-02T12:05:28;10.30;85.40
23147;DHT22;11742;53.532;-1.478;2023-03-02T12:11:23;10.20;85.30
23147;DHT22;11742;53.532;-1.478;2023-03-02T12:14:28;10.20;85.30
23147;DHT22;11742;53.532;-1.478;2023-03-02T12:20:30;10.30;85.20
23147;DHT22;11742;53.532;-1.478;2023-03-02T12:23:23;10.30;85.20
23147;DHT22;11742;53.532;-1.478;2023-03-02T12:31:54;10.30;85.20
23147;DHT22;11742;53.532;-1.478;2023-03-02T12:34:43;10.40;83.00
23147;DHT22;11742;53.532;-1.478;2023-03-02T12:37:29;10.40;81.20
23147;DHT22;11742;53.532;-1.478;2023-03-02T12:40:22;10.30;82.80
23147;DHT22;11742;53.532;-1.478;2023-03-02T12:49:13;10.20;84.60
23147;DHT22;11742;53.532;-1.478;2023-03-02T12:52:00;10.20;84.70
23147;DHT22;11742;53.532;-1.478;2023-03-02T12:54:44;10.30;84.80
23147;DHT22;11742;53.532;-1.478;2023-03-02T12:57:29;10.30;84.80
23147;DHT22;11742;53.532;-1.478;2023-03-02T13:00:17;10.30;84.70
23147;DHT22;11742;53.532;-1.478;2023-03-02T13:03:01;10.30;84.70
23147;DHT22;11742;53.532;-1.478;2023-03-02T13:05:46;10.40;84.70
23147;DHT22;11742;53.532;-1.478;2023-03-02T13:08:30;10.40;84.80
23147;DHT22;11742;53.532;-1.478;2023-03-02T13:11:25;10.40;84.70
23147;DHT22;11742;53.532;-1.478;2023-03-02T13:14:44;10.40;84.60
23147;DHT22;11742;53.532;-1.478;2023-03-02T13:17:25;10.40;84.60
23147;DHT22;11742;53.532;-1.478;2023-03-02T13:20:11;10.40;84.60
23147;DHT22;11742;53.532;-1.478;2023-03-02T13:22:56;10.50;84.70
23147;DHT22;11742;53.532;-1.478;2023-03-02T13:26:19;10.50;84.50
23147;DHT22;11742;53.532;-1.478;2023-03-02T13:29:04;10.50;84.60
23147;DHT22;11742;53.532;-1.478;2023-03-02T13:31:49;10.50;84.60
23147;DHT22;11742;53.532;-1.478;2023-03-02T13:34:33;10.50;84.60
23147;DHT22;11742;53.532;-1.478;2023-03-02T13:37:19;10.50;84.40
23147;DHT22;11742;53.532;-1.478;2023-03-02T13:40:06;10.50;84.30
23147;DHT22;11742;53.532;-1.478;2023-03-02T13:42:50;10.50;84.20
23147;DHT22;11742;53.532;-1.478;2023-03-02T13:45:35;10.60;84.40
23147;DHT22;11742;53.532;-1.478;2023-03-02T13:48:19;10.60;84.50
23147;DHT22;11742;53.532;-1.478;2023-03-02T13:51:24;10.60;84.50
23147;DHT22;11742;53.532;-1.478;2023-03-02T13:54:13;10.60;84.30
23147;DHT22;11742;53.532;-1.478;2023-03-02T13:56:59;10.60;84.30
23147;DHT22;11742;53.532;-1.478;2023-03-02T13:59:45;10.60;84.20
23147;DHT22;11742;53.532;-1.478;2023-03-02T14:02:29;10.60;84.10
23147;DHT22;11742;53.532;-1.478;2023-03-02T14:05:17;10.60;84.10
23147;DHT22;11742;53.532;-1.478;2023-03-02T14:08:02;10.70;84.10
23147;DHT22;11742;53.532;-1.478;2023-03-02T14:10:46;10.70;84.10
23147;DHT22;11742;53.532;-1.478;2023-03-02T14:13:34;10.70;84.10
23147;DHT22;11742;53.532;-1.478;2023-03-02T14:16:19;10.70;84.00
23147;DHT22;11742;53.532;-1.478;2023-03-02T14:19:04;10.70;83.90
23147;DHT22;11742;53.532;-1.478;2023-03-02T14:21:48;10.70;84.70
23147;DHT22;11742;53.532;-1.478;2023-03-02T14:24:32;10.70;84.10
23147;DHT22;11742;53.532;-1.478;2023-03-02T14:27:16;10.80;78.70
23147;DHT22;11742;53.532;-1.478;2023-03-02T14:30:01;10.80;77.80
23147;DHT22;11742;53.532;-1.478;2023-03-02T14:32:45;10.70;79.70
23147;DHT22;11742;53.532;-1.478;2023-03-02T14:35:31;10.60;80.60
23147;DHT22;11742;53.532;-1.478;2023-03-02T14:38:15;10.60;80.80
23147;DHT22;11742;53.532;-1.478;2023-03-02T14:40:59;10.60;81.60
23147;DHT22;11742;53.532;-1.478;2023-03-02T14:43:44;10.50;81.50
23147;DHT22;11742;53.532;-1.478;2023-03-02T14:46:28;10.50;81.80
23147;DHT22;11742;53.532;-1.478;2023-03-02T14:49:12;10.60;80.20
23147;DHT22;11742;53.532;-1.478;2023-03-02T14:51:58;10.50;81.40
23147;DHT22;11742;53.532;-1.478;2023-03-02T14:54:58;10.50;82.20
23147;DHT22;11742;53.532;-1.478;2023-03-02T14:57:43;10.50;82.80
23147;DHT22;11742;53.532;-1.478;2023-03-02T15:00:27;10.50;83.50
23147;DHT22;11742;53.532;-1.478;2023-03-02T15:03:12;10.50;83.80
23147;DHT22;11742;53.532;-1.478;2023-03-02T15:05:57;10.50;82.60
23147;DHT22;11742;53.532;-1.478;2023-03-02T15:08:41;10.50;82.50
23147;DHT22;11742;53.532;-1.478;2023-03-02T15:11:26;10.50;85.30
23147;DHT22;11742;53.532;-1.478;2023-03-02T15:14:10;10.60;86.20
23147;DHT22;11742;53.532;-1.478;2023-03-02T15:16:55;10.50;86.70
23147;DHT22;11742;53.532;-1.478;2023-03-02T15:19:39;10.60;87.10
23147;DHT22;11742;53.532;-1.478;2023-03-02T15:22:23;10.60;87.50
23147;DHT22;11742;53.532;-1.478;2023-03-02T15:25:08;10.60;87.90
23147;DHT22;11742;53.532;-1.478;2023-03-02T15:27:53;10.60;88.00
23147;DHT22;11742;53.532;-1.478;2023-03-02T15:30:37;10.60;88.40
23147;DHT22;11742;53.532;-1.478;2023-03-02T15:33:21;10.60;88.10
23147;DHT22;11742;53.532;-1.478;2023-03-02T15:36:06;10.60;88.90
23147;DHT22;11742;53.532;-1.478;2023-03-02T15:38:50;10.60;88.60
23147;DHT22;11742;53.532;-1.478;2023-03-02T15:41:34;10.70;89.90
23147;DHT22;11742;53.532;-1.478;2023-03-02T15:44:19;10.70;89.30
23147;DHT22;11742;53.532;-1.478;2023-03-02T15:47:09;10.70;90.00
23147;DHT22;11742;53.532;-1.478;2023-03-02T15:49:53;10.70;89.90
23147;DHT22;11742;53.532;-1.478;2023-03-02T15:52:37;10.70;88.90
23147;DHT22;11742;53.532;-1.478;2023-03-02T15:55:22;10.70;89.30
23147;DHT22;11742;53.532;-1.478;2023-03-02T15:58:07;10.70;89.10
23147;DHT22;11742;53.532;-1.478;2023-03-02T16:00:52;10.70;89.50
23147;DHT22;11742;53.532;-1.478;2023-03-02T16:03:36;10.70;89.90
23147;DHT22;11742;53.532;-1.478;2023-03-02T16:06:21;10.70;89.40
23147;DHT22;11742;53.532;-1.478;2023-03-02T16:09:07;10.70;87.50
23147;DHT22;11742;53.532;-1.478;2023-03-02T16:11:51;10.70;87.60
23147;DHT22;11742;53.532;-1.478;2023-03-02T16:14:35;10.70;87.80
23147;DHT22;11742;53.532;-1.478;2023-03-02T16:17:20;10.70;87.70
23147;DHT22;11742;53.532;-1.478;2023-03-02T16:20:04;10.70;87.80
23147;DHT22;11742;53.532;-1.478;2023-03-02T16:22:48;10.70;86.30
23147;DHT22;11742;53.532;-1.478;2023-03-02T16:25:33;10.70;86.00
23147;DHT22;11742;53.532;-1.478;2023-03-02T16:28:17;10.70;85.60
23147;DHT22;11742;53.532;-1.478;2023-03-02T16:31:09;10.70;86.60
23147;DHT22;11742;53.532;-1.478;2023-03-02T16:33:54;10.80;87.50
23147;DHT22;11742;53.532;-1.478;2023-03-02T16:36:39;10.70;88.20
23147;DHT22;11742;53.532;-1.478;2023-03-02T16:39:24;10.80;88.60
23147;DHT22;11742;53.532;-1.478;2023-03-02T16:42:08;10.80;87.10
23147;DHT22;11742;53.532;-1.478;2023-03-02T16:44:53;10.80;86.30
23147;DHT22;11742;53.532;-1.478;2023-03-02T16:47:37;10.80;85.70
23147;DHT22;11742;53.532;-1.478;2023-03-02T16:50:21;10.70;85.60
23147;DHT22;11742;53.532;-1.478;2023-03-02T16:53:05;10.70;85.20
23147;DHT22;11742;53.532;-1.478;2023-03-02T16:55:50;10.80;81.40
23147;DHT22;11742;53.532;-1.478;2023-03-02T16:58:34;10.70;81.40
23147;DHT22;11742;53.532;-1.478;2023-03-02T17:01:21;10.70;83.20
23147;DHT22;11742;53.532;-1.478;2023-03-02T17:04:06;10.70;84.00
23147;DHT22;11742;53.532;-1.478;2023-03-02T17:06:50;10.70;84.00
23147;DHT22;11742;53.532;-1.478;2023-03-02T17:09:35;10.70;84.30
23147;DHT22;11742;53.532;-1.478;2023-03-02T17:12:20;10.70;84.20
23147;DHT22;11742;53.532;-1.478;2023-03-02T17:15:04;10.60;84.10
23147;DHT22;11742;53.532;-1.478;2023-03-02T17:17:48;10.60;84.10
23147;DHT22;11742;53.532;-1.478;2023-03-02T17:20:32;10.70;84.10
23147;DHT22;11742;53.532;-1.478;2023-03-02T17:23:17;10.60;84.10
23147;DHT22;11742;53.532;-1.478;2023-03-02T17:26:01;10.60;84.20
23147;DHT22;11742;53.532;-1.478;2023-03-02T17:28:45;10.60;84.00
23147;DHT22;11742;53.532;-1.478;2023-03-02T17:31:29;10.60;84.10
23147;DHT22;11742;53.532;-1.478;2023-03-02T17:34:13;10.60;84.20
23147;DHT22;11742;53.532;-1.478;2023-03-02T17:36:58;10.60;84.30
23147;DHT22;11742;53.532;-1.478;2023-03-02T17:39:43;10.60;84.20
23147;DHT22;11742;53.532;-1.478;2023-03-02T17:42:27;10.60;84.40
23147;DHT22;11742;53.532;-1.478;2023-03-02T17:45:15;10.60;84.20
23147;DHT22;11742;53.532;-1.478;2023-03-02T17:48:00;10.60;84.20
23147;DHT22;11742;53.532;-1.478;2023-03-02T17:50:44;10.60;84.00
23147;DHT22;11742;53.532;-1.478;2023-03-02T17:53:28;10.60;84.10
23147;DHT22;11742;53.532;-1.478;2023-03-02T17:56:13;10.60;84.50
23147;DHT22;11742;53.532;-1.478;2023-03-02T17:58:59;10.60;84.60
23147;DHT22;11742;53.532;-1.478;2023-03-02T18:01:43;10.60;84.50
23147;DHT22;11742;53.532;-1.478;2023-03-02T18:04:28;10.60;84.20
23147;DHT22;11742;53.532;-1.478;2023-03-02T18:07:12;10.60;84.10
23147;DHT22;11742;53.532;-1.478;2023-03-02T18:09:56;10.60;84.10
23147;DHT22;11742;53.532;-1.478;2023-03-02T18:12:40;10.50;84.00